Historical Weather Data
Okotoks
Hwy 2A and Milligan Dr

Date
ET inches
Rain inches
Temperature °C
Humidity
Avg
Wind kmh
Avg
Solar Wm2
Avg
High
Avg
Low
08/01/2021 0.23 0.00 32.8 22.3 9.8 50 7.7 240
08/02/2021 0.09 0.00 24.2 20.7 16.4 70 7.7 96
08/03/2021 0.21 0.00 30.9 22.3 14.0 55 7.7 255
08/04/2021 0.16 0.00 28.5 18.8 9.8 51 7.5 187
08/05/2021 0.21 0.00 31.0 20.2 7.7 50 7.0 244
08/06/2021 0.17 0.00 30.1 19.7 12.4 52 7.6 189
08/07/2021 0.12 0.00 25.7 18.0 11.1 57 5.9 132
08/08/2021 0.04 0.00 17.3 12.2 9.7 76 5.9 40
08/09/2021 0.17 0.00 26.7 15.7 5.5 61 6.3 245
08/10/2021 0.13 0.00 21.5 16.5 11.2 55 8.0 183
08/11/2021 0.15 0.00 21.6 16.7 9.5 52 9.5 191
08/12/2021 0.19 0.00 26.1 18.1 10.2 47 4.7 269
08/13/2021 0.21 0.00 33.3 20.1 6.2 46 6.6 270
08/14/2021 0.18 0.00 35.0 22.3 8.8 34 6.7 191
08/15/2021 0.18 0.00 31.7 22.5 12.9 37 7.3 173
08/16/2021 0.07 0.22 19.7 16.0 10.5 61 6.8 68
08/17/2021 0.03 1.33 10.6 9.2 7.4 96 7.5 53
08/18/2021 0.16 0.00 19.5 12.3 6.6 69 8.7 263
08/19/2021 0.06 0.00 15.5 11.1 3.6 82 8.0 100
08/20/2021 0.10 0.00 19.5 12.6 9.4 73 7.7 156
08/21/2021 0.07 0.00 16.5 11.2 7.3 82 6.5 103
08/22/2021 0.14 0.00 23.0 12.9 7.4 75 7.8 210
08/23/2021 0.11 0.20 17.3 9.6 6.0 77 12.7 209
08/24/2021 0.13 0.00 18.2 11.0 6.3 61 11.2 226
08/25/2021 0.17 0.00 21.5 11.8 1.3 61 8.3 253
08/26/2021 0.14 0.00 24.9 14.0 3.6 56 4.9 207
08/27/2021 0.13 0.00 20.1 13.7 8.0 61 9.4 176
08/28/2021 0.15 0.00 23.4 14.0 4.8 59 6.2 230
08/29/2021 0.17 0.00 25.8 15.0 4.1 55 6.4 243
08/30/2021 0.17 0.00 25.3 15.2 4.9 51 7.3 231
08/31/2021 0.13 0.00 21.8 11.7 3.4 69 7.8 204